Time;durP1;ratioP1;P1;durP2;ratioP2;P2;SDS_P1;SDS_P2;PMS_P1;PMS_P2;Temp;Humidity;BMP_temperature;BMP_pressure;BME280_temperature;BME280_humidity;BME280_pressure;Samples;Min_cycle;Max_cycle;Signal;HPM_P1;HPM_P2
2023/10/03 00:01:23;;;;;;;7.97;3.05;;;34.80;35.60;;;;;;5069223;28;20406;-70
2023/10/03 00:03:50;;;;;;;10.80;3.08;;;34.60;34.40;;;;;;5071428;28;20028;-68
2023/10/03 00:06:17;;;;;;;9.70;3.33;;;34.90;35.90;;;;;;5073858;28;20028;-70
2023/10/03 00:08:45;;;;;;;11.48;3.63;;;35.00;33.70;;;;;;5073879;28;20028;-71
2023/10/03 00:11:19;;;;;;;8.30;3.35;;;35.40;34.50;;;;;;5055894;28;20067;-71
2023/10/03 00:13:47;;;;;;;6.82;3.38;;;35.40;34.20;;;;;;5065278;28;20426;-72
2023/10/03 00:16:15;;;;;;;8.50;2.83;;;35.20;34.30;;;;;;5072429;28;20032;-71
2023/10/03 00:18:42;;;;;;;8.48;3.33;;;35.40;34.70;;;;;;5074710;28;20055;-71
2023/10/03 00:21:10;;;;;;;7.65;3.22;;;35.90;33.60;;;;;;5075373;28;20406;-71
2023/10/03 00:23:37;;;;;;;9.68;3.00;;;36.30;33.60;;;;;;5077348;28;20021;-72
2023/10/03 00:26:07;;;;;;;7.40;3.35;;;36.70;32.70;;;;;;5078011;28;20024;-72
2023/10/03 00:28:34;;;;;;;11.05;3.22;;;36.90;33.10;;;;;;5072865;28;20025;-71
2023/10/03 00:31:09;;;;;;;4.68;2.55;;;37.00;31.80;;;;;;5073199;28;20024;-71
2023/10/03 00:33:36;;;;;;;4.45;2.25;;;36.60;31.50;;;;;;5076196;28;20029;-71
2023/10/03 00:36:04;;;;;;;4.45;2.17;;;36.80;30.00;;;;;;5080416;28;20345;-71
2023/10/03 00:38:34;;;;;;;3.35;2.20;;;36.70;29.00;;;;;;5076457;28;20043;-71
2023/10/03 00:41:01;;;;;;;5.55;2.47;;;36.10;29.30;;;;;;5061094;28;20025;-71
2023/10/03 00:43:28;;;;;;;3.95;2.25;;;35.80;28.80;;;;;;5078547;28;20064;-71
2023/10/03 00:45:55;;;;;;;6.82;2.30;;;36.00;29.40;;;;;;5076784;28;20415;-71
2023/10/03 00:48:23;;;;;;;8.15;1.95;;;36.00;29.00;;;;;;5074861;28;20055;-72
2023/10/03 00:50:53;;;;;;;3.45;1.98;;;35.80;29.10;;;;;;5079210;28;20031;-71
2023/10/03 00:53:20;;;;;;;5.38;2.05;;;35.60;29.30;;;;;;5076166;28;20040;-70
2023/10/03 00:55:48;;;;;;;4.15;2.30;;;35.70;29.40;;;;;;5076335;28;20033;-72
2023/10/03 01:00:51;;;;;;;5.05;2.40;;;36.30;29.60;;;;;;5083744;28;20071;-69
2023/10/03 01:03:37;;;;;;;5.37;2.50;;;36.40;29.00;;;;;;5077751;28;20060;-72
2023/10/03 01:06:09;;;;;;;4.50;2.10;;;36.10;28.90;;;;;;5074296;28;20044;-71
2023/10/03 01:08:39;;;;;;;3.72;2.22;;;36.00;29.30;;;;;;5057555;28;20499;-72
2023/10/03 01:11:13;;;;;;;3.58;2.28;;;36.30;28.90;;;;;;5073990;28;20147;-71
2023/10/03 01:13:40;;;;;;;3.80;1.92;;;36.30;28.80;;;;;;5079036;28;20031;-70
2023/10/03 01:16:08;;;;;;;4.43;2.25;;;36.60;28.40;;;;;;5085658;28;20051;-70
2023/10/03 01:18:38;;;;;;;4.57;2.20;;;36.20;28.60;;;;;;5085661;28;20027;-70
2023/10/03 01:21:06;;;;;;;3.90;2.22;;;36.00;29.30;;;;;;5058618;28;20025;-71
2023/10/03 01:23:35;;;;;;;5.75;2.10;;;36.00;28.70;;;;;;5071286;28;20024;-71
2023/10/03 01:26:04;;;;;;;3.55;2.10;;;36.20;28.90;;;;;;5071254;28;20504;-72
2023/10/03 01:28:32;;;;;;;5.45;1.98;;;36.30;29.10;;;;;;5073134;28;20027;-70
2023/10/03 01:30:59;;;;;;;10.27;2.58;;;36.40;28.70;;;;;;5078919;28;20723;-71
2023/10/03 01:33:27;;;;;;;5.43;2.05;;;36.20;28.90;;;;;;5090450;28;20099;-72
2023/10/03 01:35:55;;;;;;;6.10;1.95;;;36.60;29.30;;;;;;5073696;28;20449;-73
2023/10/03 01:38:29;;;;;;;3.33;2.03;;;36.30;28.60;;;;;;5071804;28;20033;-72
2023/10/03 01:40:58;;;;;;;4.85;2.10;;;36.70;28.50;;;;;;5064172;28;20035;-71
2023/10/03 01:43:26;;;;;;;7.25;2.38;;;36.50;28.60;;;;;;5074165;28;20418;-72
2023/10/03 01:45:54;;;;;;;4.85;1.77;;;36.90;28.60;;;;;;5078504;28;20028;-72
2023/10/03 01:48:23;;;;;;;4.63;2.33;;;37.20;28.60;;;;;;5071157;28;20115;-71
2023/10/03 01:50:50;;;;;;;4.15;2.00;;;37.10;28.30;;;;;;5069446;28;20024;-71
2023/10/03 01:53:18;;;;;;;8.10;2.40;;;37.10;28.30;;;;;;5072592;28;20016;-71
2023/10/03 01:55:46;;;;;;;4.53;1.92;;;36.80;28.60;;;;;;5068346;28;20070;-72
2023/10/03 01:58:14;;;;;;;7.22;2.33;;;37.10;28.40;;;;;;5066856;28;20564;-72
2023/10/03 02:00:41;;;;;;;3.90;1.83;;;37.30;28.70;;;;;;5062194;28;20048;-73
2023/10/03 02:03:12;;;;;;;5.40;1.63;;;37.20;28.30;;;;;;5062670;28;20028;-71
2023/10/03 02:05:43;;;;;;;2.80;1.95;;;37.20;28.60;;;;;;5068107;28;20035;-69
2023/10/03 02:08:16;;;;;;;4.03;2.08;;;37.60;28.00;;;;;;5071596;28;20036;-71
2023/10/03 02:10:50;;;;;;;4.25;2.00;;;37.40;28.20;;;;;;5075123;28;20031;-70
2023/10/03 02:13:18;;;;;;;5.50;1.95;;;37.40;27.90;;;;;;5063078;28;20028;-71
2023/10/03 02:15:47;;;;;;;6.10;1.85;;;37.30;28.10;;;;;;5067890;28;20036;-73
2023/10/03 02:18:21;;;;;;;4.20;2.03;;;37.40;28.30;;;;;;5073001;28;20029;-71
2023/10/03 02:20:59;;;;;;;4.43;1.92;;;37.20;27.90;;;;;;5078790;28;20020;-71
2023/10/03 02:23:27;;;;;;;3.50;1.90;;;37.30;27.80;;;;;;5064232;28;20104;-71
2023/10/03 02:26:10;;;;;;;6.43;2.13;;;37.10;27.80;;;;;;5066474;28;20025;-72
2023/10/03 02:28:38;;;;;;;3.72;1.58;;;37.30;28.10;;;;;;5063321;28;20055;-72
2023/10/03 02:31:09;;;;;;;4.55;2.05;;;37.50;27.80;;;;;;5065718;28;20449;-72
2023/10/03 02:33:39;;;;;;;3.88;1.92;;;37.20;27.90;;;;;;5051844;28;20020;-72
2023/10/03 02:36:09;;;;;;;4.78;1.80;;;37.70;28.00;;;;;;5046198;28;20036;-71
2023/10/03 02:38:37;;;;;;;3.97;2.25;;;38.10;27.60;;;;;;5070108;28;20016;-72
2023/10/03 02:41:06;;;;;;;4.60;1.80;;;38.30;28.20;;;;;;5067372;28;20032;-71
2023/10/03 02:43:38;;;;;;;6.55;2.00;;;38.30;27.30;;;;;;5068833;28;20064;-71
2023/10/03 02:46:11;;;;;;;5.30;1.92;;;37.70;27.60;;;;;;5066932;28;20012;-71
2023/10/03 02:48:39;;;;;;;6.97;2.38;;;37.80;28.10;;;;;;5068540;28;20067;-71
2023/10/03 02:51:08;;;;;;;6.50;2.00;;;38.10;27.60;;;;;;5067416;28;20028;-70
2023/10/03 02:53:35;;;;;;;9.90;2.33;;;37.80;27.00;;;;;;5072511;28;20028;-69
2023/10/03 02:56:05;;;;;;;3.60;2.15;;;38.00;27.10;;;;;;5082180;28;20028;-71
2023/10/03 02:58:35;;;;;;;6.00;1.73;;;38.00;26.90;;;;;;5083339;28;20052;-72
2023/10/03 03:01:03;;;;;;;3.05;1.73;;;38.00;27.30;;;;;;5074035;28;20033;-71
2023/10/03 03:03:32;;;;;;;3.30;1.42;;;37.80;26.70;;;;;;5069715;28;20456;-71
2023/10/03 03:06:10;;;;;;;3.53;1.70;;;37.90;26.70;;;;;;5047159;28;20036;-71
2023/10/03 03:08:39;;;;;;;5.40;1.83;;;38.00;27.00;;;;;;5064646;28;20020;-72
2023/10/03 03:11:08;;;;;;;3.92;1.63;;;38.00;27.20;;;;;;5062919;28;20043;-73
2023/10/03 03:13:36;;;;;;;4.53;1.90;;;38.20;27.10;;;;;;5049369;28;20401;-73
2023/10/03 03:16:05;;;;;;;4.68;1.67;;;37.90;27.20;;;;;;5066438;28;20058;-73
2023/10/03 03:18:40;;;;;;;7.80;1.88;;;38.00;27.10;;;;;;5064955;28;20025;-73
2023/10/03 03:21:09;;;;;;;4.80;1.63;;;37.90;26.50;;;;;;5040680;28;20102;-73
2023/10/03 03:23:38;;;;;;;2.75;1.77;;;37.60;27.00;;;;;;5071154;28;20066;-71
2023/10/03 03:26:17;;;;;;;2.83;1.80;;;37.70;26.90;;;;;;5073203;28;20032;-70
2023/10/03 03:28:51;;;;;;;7.72;1.63;;;37.80;26.80;;;;;;5077756;28;20566;-71
2023/10/03 03:31:26;;;;;;;4.50;1.98;;;37.70;27.20;;;;;;5066193;28;20448;-72
2023/10/03 03:34:00;;;;;;;12.15;2.00;;;37.90;26.90;;;;;;5075152;28;20158;-73
2023/10/03 03:36:30;;;;;;;5.65;1.65;;;37.80;27.40;;;;;;5053655;28;20070;-72
2023/10/03 03:39:03;;;;;;;5.88;2.30;;;38.10;26.90;;;;;;5078825;28;20111;-72
2023/10/03 03:41:30;;;;;;;2.90;1.88;;;37.70;26.90;;;;;;5071915;28;20487;-72
2023/10/03 03:43:59;;;;;;;5.13;1.63;;;37.90;27.30;;;;;;5072454;28;20017;-72
2023/10/03 03:46:29;;;;;;;3.50;1.88;;;37.50;27.00;;;;;;5078659;28;20126;-73
2023/10/03 03:48:58;;;;;;;5.03;2.05;;;37.60;27.00;;;;;;5078029;28;20071;-72
2023/10/03 03:51:25;;;;;;;3.03;1.58;;;37.70;27.00;;;;;;5077948;28;20377;-72
2023/10/03 03:53:53;;;;;;;3.03;1.65;;;37.70;27.30;;;;;;5079861;28;20016;-72
2023/10/03 03:56:20;;;;;;;6.85;1.70;;;37.70;27.20;;;;;;5073102;28;20039;-72
2023/10/03 03:58:48;;;;;;;3.33;1.98;;;37.70;27.40;;;;;;5077674;28;20504;-73
2023/10/03 04:01:19;;;;;;;3.47;2.00;;;37.90;26.80;;;;;;5076553;28;20464;-71
2023/10/03 04:03:54;;;;;;;3.70;1.95;;;38.00;26.80;;;;;;5078444;28;20101;-72
2023/10/03 04:06:22;;;;;;;3.10;1.80;;;37.80;27.30;;;;;;5060841;28;20035;-72
2023/10/03 04:08:50;;;;;;;4.75;2.25;;;37.40;27.10;;;;;;5075325;28;20417;-73
2023/10/03 04:11:18;;;;;;;4.32;1.80;;;37.20;27.10;;;;;;5064652;28;20055;-72
2023/10/03 04:13:55;;;;;;;3.30;1.85;;;37.10;26.90;;;;;;5049379;28;20059;-73
2023/10/03 04:16:28;;;;;;;3.80;1.70;;;36.90;27.00;;;;;;5066894;28;20028;-72
2023/10/03 04:18:56;;;;;;;3.72;1.85;;;36.90;26.90;;;;;;5066662;28;20036;-71
2023/10/03 04:21:28;;;;;;;3.92;2.00;;;37.10;27.10;;;;;;5066271;28;20024;-71
2023/10/03 04:23:56;;;;;;;3.45;1.75;;;36.90;27.20;;;;;;5054725;28;20483;-70
2023/10/03 04:26:24;;;;;;;4.18;2.00;;;37.30;26.90;;;;;;5060779;28;20063;-70
2023/10/03 04:28:52;;;;;;;3.22;1.70;;;37.20;27.10;;;;;;5076685;28;20103;-72
2023/10/03 04:31:20;;;;;;;5.97;2.08;;;37.20;27.10;;;;;;5071923;28;20043;-71
2023/10/03 04:33:47;;;;;;;3.70;1.60;;;37.20;27.20;;;;;;5078928;28;20561;-71
2023/10/03 04:36:15;;;;;;;5.15;1.73;;;37.30;26.70;;;;;;5071648;28;20037;-71
2023/10/03 04:38:42;;;;;;;5.18;1.83;;;37.20;26.40;;;;;;5067573;28;20023;-70
2023/10/03 04:41:09;;;;;;;3.25;1.63;;;36.90;26.50;;;;;;5065285;28;20028;-70
2023/10/03 04:43:39;;;;;;;4.63;1.63;;;36.90;26.60;;;;;;5071363;28;20481;-71
2023/10/03 04:46:08;;;;;;;4.00;1.60;;;37.00;26.60;;;;;;5064748;28;20047;-70
2023/10/03 04:48:37;;;;;;;3.63;1.60;;;37.20;26.40;;;;;;5062339;28;20079;-72
2023/10/03 04:51:05;;;;;;;4.28;1.75;;;37.10;26.20;;;;;;5041607;28;20381;-72
2023/10/03 04:53:32;;;;;;;2.25;1.63;;;37.10;26.40;;;;;;5065768;28;20107;-72
2023/10/03 04:56:00;;;;;;;3.70;1.80;;;37.20;26.40;;;;;;5041870;28;20385;-71
2023/10/03 04:58:27;;;;;;;3.65;1.80;;;37.20;26.20;;;;;;5075735;28;20059;-72
2023/10/03 05:00:55;;;;;;;3.65;1.90;;;37.20;26.40;;;;;;5078300;28;20111;-72
2023/10/03 05:03:23;;;;;;;7.05;2.05;;;37.20;26.40;;;;;;5067631;28;20115;-73
2023/10/03 05:05:52;;;;;;;2.85;1.50;;;36.70;26.00;;;;;;5068554;28;20506;-72
2023/10/03 05:08:19;;;;;;;4.93;1.35;;;36.40;25.70;;;;;;5072282;28;20024;-72
2023/10/03 05:10:47;;;;;;;2.92;1.75;;;36.10;25.90;;;;;;5074944;28;20133;-72
2023/10/03 05:13:16;;;;;;;4.93;1.80;;;36.10;26.20;;;;;;5063292;28;20032;-73
2023/10/03 05:15:44;;;;;;;4.15;1.30;;;35.90;25.90;;;;;;5062956;28;20048;-73
2023/10/03 05:18:13;;;;;;;3.75;1.75;;;35.70;26.20;;;;;;5051790;28;20066;-73
2023/10/03 05:20:42;;;;;;;3.28;1.45;;;35.70;26.20;;;;;;5080900;28;20076;-73
2023/10/03 05:23:09;;;;;;;4.93;1.60;;;35.70;25.90;;;;;;5083416;28;20565;-73
2023/10/03 05:25:37;;;;;;;3.00;1.77;;;35.50;26.20;;;;;;5062828;28;20410;-73
2023/10/03 05:28:05;;;;;;;5.95;1.63;;;35.50;26.20;;;;;;5076838;28;20101;-73
2023/10/03 05:30:35;;;;;;;6.78;1.83;;;35.60;26.30;;;;;;5071876;28;20017;-72
2023/10/03 05:33:04;;;;;;;3.88;1.58;;;35.60;26.10;;;;;;5071982;28;20034;-73
2023/10/03 05:35:31;;;;;;;3.90;1.63;;;35.60;26.30;;;;;;5075985;28;20035;-72
2023/10/03 05:37:59;;;;;;;6.07;1.70;;;35.60;26.10;;;;;;5078396;28;20039;-73
2023/10/03 05:40:26;;;;;;;4.78;1.42;;;35.70;26.20;;;;;;5075497;28;20097;-72
2023/10/03 05:42:54;;;;;;;4.60;1.77;;;35.60;26.10;;;;;;5078024;28;20020;-72
2023/10/03 05:45:21;;;;;;;4.78;1.67;;;35.60;26.20;;;;;;5060861;28;20040;-73
2023/10/03 05:47:49;;;;;;;4.43;1.55;;;35.60;26.00;;;;;;5078307;28;20032;-73
2023/10/03 05:50:21;;;;;;;3.80;1.40;;;35.40;26.10;;;;;;5053576;28;20049;-72
2023/10/03 05:52:50;;;;;;;2.88;1.48;;;35.20;25.90;;;;;;5044957;28;20032;-74
2023/10/03 05:55:17;;;;;;;2.53;1.50;;;35.20;26.20;;;;;;5057533;28;20115;-71
2023/10/03 05:57:45;;;;;;;5.47;1.45;;;35.10;26.10;;;;;;5059434;28;20051;-73
2023/10/03 06:00:21;;;;;;;3.55;1.63;;;35.10;26.20;;;;;;5052054;28;20047;-72
2023/10/03 06:02:50;;;;;;;3.75;1.50;;;35.00;26.30;;;;;;5066396;28;21821;-73
2023/10/03 06:05:17;;;;;;;6.82;1.60;;;35.10;26.50;;;;;;5061168;28;20043;-75
2023/10/03 06:07:48;;;;;;;4.40;1.73;;;34.90;26.40;;;;;;5049580;28;20063;-72
2023/10/03 06:10:16;;;;;;;4.40;1.83;;;35.00;26.50;;;;;;5051074;28;20037;-72
2023/10/03 06:12:43;;;;;;;5.30;1.35;;;34.90;26.60;;;;;;5058223;28;20020;-71
2023/10/03 06:15:12;;;;;;;4.40;1.80;;;34.80;26.70;;;;;;5050161;28;20029;-70
2023/10/03 06:17:40;;;;;;;3.80;1.45;;;34.70;26.70;;;;;;5047512;28;20508;-72
2023/10/03 06:20:11;;;;;;;2.97;1.58;;;34.70;26.60;;;;;;5059600;28;20021;-72
2023/10/03 06:22:39;;;;;;;7.88;1.60;;;34.70;26.80;;;;;;5045476;28;20028;-71
2023/10/03 06:25:07;;;;;;;3.30;1.52;;;34.70;26.70;;;;;;5046502;28;20489;-72
2023/10/03 06:27:34;;;;;;;4.65;1.40;;;34.70;26.90;;;;;;5048190;28;20063;-71
2023/10/03 06:30:02;;;;;;;3.53;1.60;;;34.70;26.80;;;;;;5046957;28;20046;-72
2023/10/03 06:32:29;;;;;;;5.25;1.40;;;34.60;26.80;;;;;;5047264;28;20029;-71
2023/10/03 06:34:56;;;;;;;3.17;1.75;;;34.60;26.70;;;;;;5047755;28;20386;-72
2023/10/03 06:37:24;;;;;;;4.40;1.80;;;34.60;27.00;;;;;;5051762;28;20043;-73
2023/10/03 06:39:51;;;;;;;6.38;1.73;;;34.40;27.00;;;;;;5051790;28;20025;-71
2023/10/03 06:42:18;;;;;;;3.00;1.98;;;34.40;26.90;;;;;;5052826;28;20513;-71
2023/10/03 06:44:46;;;;;;;1.63;1.20;;;34.30;26.80;;;;;;5056069;28;20044;-71
2023/10/03 06:47:13;;;;;;;4.90;1.38;;;34.20;26.70;;;;;;5048483;28;20029;-72
2023/10/03 06:49:41;;;;;;;3.40;1.40;;;34.10;26.90;;;;;;5057650;28;20056;-72
2023/10/03 06:52:08;;;;;;;4.80;1.80;;;34.00;26.90;;;;;;5046714;28;20021;-72
2023/10/03 06:54:36;;;;;;;5.00;1.45;;;34.00;26.90;;;;;;5049859;28;20020;-71
2023/10/03 06:57:04;;;;;;;6.53;1.60;;;33.90;27.00;;;;;;5050097;28;20032;-71
2023/10/03 06:59:35;;;;;;;3.38;1.60;;;33.90;26.90;;;;;;5044654;28;20031;-70
2023/10/03 07:02:04;;;;;;;3.88;1.50;;;33.90;27.10;;;;;;5054490;28;20025;-70
2023/10/03 07:04:31;;;;;;;3.78;1.70;;;33.80;27.10;;;;;;5062306;28;20072;-70
2023/10/03 07:06:59;;;;;;;2.80;1.50;;;33.70;27.10;;;;;;5051861;28;20044;-70
2023/10/03 07:09:26;;;;;;;3.63;1.75;;;33.70;27.30;;;;;;5058917;28;20037;-70
2023/10/03 07:11:55;;;;;;;3.75;1.70;;;33.50;27.90;;;;;;5051187;28;20017;-71
2023/10/03 07:14:23;;;;;;;6.32;1.98;;;33.50;27.20;;;;;;5051079;28;20448;-70
2023/10/03 07:16:50;;;;;;;7.53;2.17;;;33.50;27.50;;;;;;5052740;28;20029;-69
2023/10/03 07:19:20;;;;;;;5.25;1.88;;;33.30;27.70;;;;;;5044924;28;20025;-72
2023/10/03 07:21:47;;;;;;;5.53;1.88;;;33.20;27.90;;;;;;5049470;28;20113;-71
2023/10/03 07:24:15;;;;;;;7.10;2.42;;;33.00;28.20;;;;;;5054493;28;20040;-71
2023/10/03 07:26:42;;;;;;;5.32;2.15;;;32.90;28.60;;;;;;5054530;28;20017;-71
2023/10/03 07:29:10;;;;;;;5.32;3.30;;;32.70;28.50;;;;;;5045839;28;20021;-71
2023/10/03 07:31:38;;;;;;;11.73;2.97;;;32.60;28.70;;;;;;5045134;28;20064;-71
2023/10/03 07:34:05;;;;;;;6.97;2.88;;;32.50;28.80;;;;;;5054028;28;20487;-71
2023/10/03 07:36:33;;;;;;;7.88;3.22;;;32.50;29.00;;;;;;5047761;28;20423;-69
2023/10/03 07:39:00;;;;;;;16.38;8.98;;;32.30;29.00;;;;;;5045984;28;20037;-71
2023/10/03 07:41:28;;;;;;;6.13;3.08;;;32.30;29.20;;;;;;5042449;28;20025;-72
2023/10/03 07:43:55;;;;;;;8.10;2.20;;;32.20;29.40;;;;;;5048652;28;20543;-71
2023/10/03 07:46:25;;;;;;;6.97;2.10;;;32.00;29.50;;;;;;5053478;28;20029;-72
2023/10/03 07:48:53;;;;;;;5.07;2.10;;;32.00;29.60;;;;;;5059410;28;20047;-72
2023/10/03 07:51:29;;;;;;;5.07;2.13;;;31.90;29.60;;;;;;5043781;28;20039;-72
2023/10/03 07:53:57;;;;;;;6.65;2.20;;;31.80;29.50;;;;;;5066162;28;20027;-72
2023/10/03 07:56:30;;;;;;;4.28;2.05;;;31.70;29.50;;;;;;5079945;28;20043;-73
2023/10/03 07:59:01;;;;;;;4.35;2.10;;;31.60;29.90;;;;;;5068231;28;20024;-72
2023/10/03 08:01:29;;;;;;;7.22;2.50;;;31.50;29.80;;;;;;5064579;28;20054;-72
2023/10/03 08:03:58;;;;;;;4.63;2.00;;;31.40;30.00;;;;;;5049284;28;20344;-72
2023/10/03 08:06:31;;;;;;;4.80;2.15;;;31.20;30.50;;;;;;5073958;28;20037;-69
2023/10/03 08:08:59;;;;;;;4.72;2.38;;;31.10;30.30;;;;;;5059008;28;20025;-72
2023/10/03 08:11:31;;;;;;;10.82;2.20;;;31.00;30.50;;;;;;5069975;28;20025;-71
2023/10/03 08:14:00;;;;;;;6.88;2.20;;;30.90;30.60;;;;;;5073163;28;20033;-69
2023/10/03 08:16:28;;;;;;;5.80;2.50;;;30.90;30.80;;;;;;5062383;28;20050;-70
2023/10/03 08:18:58;;;;;;;4.75;1.95;;;31.00;30.80;;;;;;5069043;28;20123;-70
2023/10/03 08:21:29;;;;;;;3.35;1.95;;;31.10;30.60;;;;;;5048948;28;20082;-70
2023/10/03 08:23:57;;;;;;;13.95;2.17;;;31.10;30.80;;;;;;5071191;28;20036;-70
2023/10/03 08:26:26;;;;;;;6.05;2.17;;;30.70;30.90;;;;;;5068452;28;20457;-70
2023/10/03 08:28:59;;;;;;;6.13;2.40;;;30.50;31.20;;;;;;5070371;28;20734;-71
2023/10/03 08:31:27;;;;;;;5.65;2.83;;;30.30;32.10;;;;;;5065973;28;20068;-70
2023/10/03 08:33:58;;;;;;;7.63;2.13;;;30.20;31.70;;;;;;5069476;28;20036;-71
2023/10/03 08:36:31;;;;;;;7.97;2.28;;;30.10;31.70;;;;;;5070464;28;20040;-70
2023/10/03 08:39:14;;;;;;;4.90;2.10;;;30.10;31.20;;;;;;5066692;28;20086;-70
2023/10/03 08:41:58;;;;;;;5.55;1.92;;;30.20;31.20;;;;;;5067167;28;20020;-68
2023/10/03 08:44:31;;;;;;;5.65;2.00;;;30.10;31.00;;;;;;5068010;28;20032;-70
2023/10/03 08:47:01;;;;;;;5.10;1.77;;;30.10;31.00;;;;;;5067695;28;20437;-70
2023/10/03 08:49:39;;;;;;;5.30;1.70;;;30.00;31.20;;;;;;5068396;28;20508;-70
2023/10/03 08:52:11;;;;;;;8.55;2.05;;;30.00;30.50;;;;;;5071792;28;20051;-69
2023/10/03 08:54:40;;;;;;;9.80;2.42;;;29.90;30.50;;;;;;5076190;28;20036;-70
2023/10/03 08:57:12;;;;;;;4.43;2.00;;;30.00;30.40;;;;;;5054786;28;20397;-71
2023/10/03 08:59:41;;;;;;;4.53;1.98;;;30.00;30.20;;;;;;5071997;28;20024;-72
2023/10/03 09:02:24;;;;;;;3.47;1.63;;;30.00;30.10;;;;;;5073429;28;20024;-71
2023/10/03 09:04:52;;;;;;;3.72;1.58;;;30.10;30.00;;;;;;5072729;28;20046;-71
2023/10/03 09:07:19;;;;;;;8.10;1.92;;;29.90;30.00;;;;;;5061830;28;20038;-71
2023/10/03 09:09:47;;;;;;;5.20;1.88;;;29.90;30.10;;;;;;5072267;28;20029;-70
2023/10/03 09:12:16;;;;;;;3.38;1.52;;;30.00;30.00;;;;;;5061443;28;20028;-71
2023/10/03 09:14:53;;;;;;;4.28;1.83;;;30.00;30.00;;;;;;5066783;28;20025;-72
2023/10/03 09:17:23;;;;;;;4.97;2.20;;;30.00;29.90;;;;;;5076294;28;20044;-69
2023/10/03 09:19:52;;;;;;;4.03;2.10;;;29.80;30.00;;;;;;5070231;28;20400;-70
2023/10/03 09:22:32;;;;;;;4.38;1.65;;;29.60;30.10;;;;;;5070409;28;20515;-69
2023/10/03 09:25:00;;;;;;;6.22;1.90;;;29.50;30.20;;;;;;5055118;28;20631;-71
2023/10/03 09:27:30;;;;;;;3.45;1.70;;;29.40;30.60;;;;;;5074230;28;20453;-69
2023/10/03 09:29:59;;;;;;;6.60;2.10;;;29.30;30.30;;;;;;5057245;28;20374;-70
2023/10/03 09:32:29;;;;;;;4.90;2.50;;;29.40;30.00;;;;;;5073501;28;20065;-69
2023/10/03 09:35:09;;;;;;;7.65;2.63;;;29.50;30.00;;;;;;5062097;28;20477;-67
2023/10/03 09:37:40;;;;;;;3.70;2.00;;;29.50;30.20;;;;;;5070597;28;20024;-67
2023/10/03 09:40:17;;;;;;;4.95;2.22;;;29.30;30.00;;;;;;5064411;28;20033;-68
2023/10/03 09:42:50;;;;;;;11.18;2.47;;;29.50;30.00;;;;;;5058871;28;20024;-66
2023/10/03 09:45:24;;;;;;;6.10;2.03;;;29.30;30.00;;;;;;5073996;28;20032;-67
2023/10/03 09:47:58;;;;;;;7.50;2.15;;;29.20;30.10;;;;;;5075253;28;20032;-67
2023/10/03 09:50:31;;;;;;;7.07;2.40;;;29.10;30.40;;;;;;5067572;28;20084;-67
2023/10/03 09:53:02;;;;;;;6.82;2.40;;;28.80;31.80;;;;;;5061647;28;20495;-65
2023/10/03 09:55:46;;;;;;;7.30;3.13;;;28.70;31.70;;;;;;5060055;28;20043;-67
2023/10/03 09:58:24;;;;;;;3.22;1.70;;;28.50;33.70;;;;;;5056794;28;20119;-68
2023/10/03 10:00:56;;;;;;;3.47;1.95;;;28.40;30.60;;;;;;5070623;28;20074;-67
2023/10/03 10:03:28;;;;;;;6.60;2.38;;;28.50;30.80;;;;;;5056972;28;20086;-66
2023/10/03 10:06:04;;;;;;;5.93;2.35;;;28.50;30.90;;;;;;5070858;28;20143;-65
2023/10/03 10:08:42;;;;;;;4.50;1.77;;;28.50;32.50;;;;;;5074868;28;20032;-65
2023/10/03 10:11:09;;;;;;;3.17;2.20;;;28.40;32.50;;;;;;5069037;28;20495;-67
2023/10/03 10:13:41;;;;;;;5.35;1.90;;;28.30;32.50;;;;;;5070094;28;20025;-66
2023/10/03 10:16:20;;;;;;;6.95;2.35;;;28.10;33.00;;;;;;5069645;28;20542;-67
2023/10/03 10:18:51;;;;;;;4.25;2.13;;;28.00;33.10;;;;;;5074552;28;20036;-67
2023/10/03 10:21:25;;;;;;;5.75;2.00;;;28.00;32.30;;;;;;5055139;28;20029;-66
2023/10/03 10:24:20;;;;;;;9.98;2.33;;;28.00;32.10;;;;;;5060395;28;20503;-67
2023/10/03 10:26:49;;;;;;;7.88;2.55;;;27.90;32.40;;;;;;5069896;28;20393;-67
2023/10/03 10:29:24;;;;;;;5.55;2.20;;;28.00;34.70;;;;;;5063553;28;20373;-66
2023/10/03 10:31:59;;;;;;;5.90;2.40;;;28.00;32.30;;;;;;5068844;28;20147;-66
2023/10/03 10:34:46;;;;;;;7.32;2.33;;;27.90;33.80;;;;;;5070209;28;20036;-67
2023/10/03 10:37:18;;;;;;;10.60;2.50;;;27.80;32.70;;;;;;5061830;28;20032;-67
2023/10/03 10:40:04;;;;;;;5.22;2.28;;;28.00;32.90;;;;;;5060173;28;20033;-67
2023/10/03 10:42:52;;;;;;;4.75;2.08;;;28.00;32.60;;;;;;5064241;28;20487;-66
2023/10/03 10:45:20;;;;;;;5.25;2.30;;;27.90;32.20;;;;;;5071830;28;20493;-69
2023/10/03 10:47:54;;;;;;;6.40;2.25;;;27.80;32.80;;;;;;5070342;28;20052;-65
2023/10/03 10:50:28;;;;;;;5.63;1.83;;;27.90;32.40;;;;;;5066431;28;20052;-65
2023/10/03 10:53:03;;;;;;;6.60;2.20;;;27.80;32.40;;;;;;5065770;28;20282;-67
2023/10/03 10:55:33;;;;;;;5.00;1.73;;;27.70;32.70;;;;;;5070552;28;20745;-66
2023/10/03 10:58:03;;;;;;;4.40;2.08;;;27.70;33.20;;;;;;5060341;28;20432;-71
2023/10/03 11:00:33;;;;;;;5.45;2.20;;;27.70;32.60;;;;;;5073653;28;20068;-71
2023/10/03 11:03:02;;;;;;;3.88;2.10;;;27.70;32.40;;;;;;5079307;28;20105;-70
2023/10/03 11:05:55;;;;;;;6.35;2.40;;;27.70;32.40;;;;;;5073193;28;20155;-69
2023/10/03 11:08:23;;;;;;;4.68;2.00;;;27.80;32.10;;;;;;5068189;28;20064;-70
2023/10/03 11:10:52;;;;;;;8.30;2.20;;;27.80;32.60;;;;;;5072565;28;20070;-70
2023/10/03 11:13:20;;;;;;;4.10;1.60;;;27.80;32.50;;;;;;5063776;28;20074;-69
2023/10/03 11:15:49;;;;;;;7.10;1.90;;;27.80;32.00;;;;;;5072701;28;20083;-70
2023/10/03 11:18:27;;;;;;;4.30;2.25;;;27.90;31.60;;;;;;5080768;28;20033;-69
2023/10/03 11:20:55;;;;;;;6.43;1.92;;;27.80;31.60;;;;;;5080477;28;20019;-70
2023/10/03 11:23:23;;;;;;;6.78;2.05;;;27.80;31.40;;;;;;5076920;28;20036;-69
2023/10/03 11:25:58;;;;;;;6.63;2.13;;;27.70;31.60;;;;;;5073568;28;20090;-70
2023/10/03 11:28:29;;;;;;;3.95;1.60;;;27.70;31.60;;;;;;5060696;28;20044;-70
2023/10/03 11:31:04;;;;;;;6.45;2.33;;;27.70;31.70;;;;;;5076699;28;20078;-70
2023/10/03 11:33:45;;;;;;;5.50;1.95;;;27.70;31.80;;;;;;5072084;28;20036;-69
2023/10/03 11:36:14;;;;;;;3.63;1.70;;;27.70;32.10;;;;;;5054296;28;20230;-69
2023/10/03 11:38:49;;;;;;;4.75;1.65;;;27.60;32.10;;;;;;5075942;28;20024;-68
2023/10/03 11:41:32;;;;;;;6.38;1.83;;;27.60;32.00;;;;;;5074195;28;20060;-69
2023/10/03 11:44:01;;;;;;;7.72;2.10;;;27.50;31.90;;;;;;5058603;28;20066;-69
2023/10/03 11:46:44;;;;;;;6.10;1.85;;;27.40;32.20;;;;;;5076627;28;20126;-70
2023/10/03 11:49:12;;;;;;;5.10;1.90;;;27.40;32.70;;;;;;5056982;28;20072;-69
2023/10/03 11:51:42;;;;;;;4.32;2.10;;;27.30;32.60;;;;;;5075356;28;20381;-69
2023/10/03 11:54:15;;;;;;;2.95;1.80;;;27.20;32.50;;;;;;5071406;28;20055;-70
2023/10/03 11:56:45;;;;;;;5.97;1.60;;;27.10;32.80;;;;;;5072530;28;20053;-70
2023/10/03 11:59:17;;;;;;;2.55;1.83;;;27.00;32.80;;;;;;5073017;28;20099;-68
2023/10/03 12:01:56;;;;;;;5.93;2.20;;;26.80;33.00;;;;;;5071044;28;20378;-70
2023/10/03 12:04:29;;;;;;;3.85;1.90;;;26.80;33.10;;;;;;5053768;28;20144;-70
2023/10/03 12:06:57;;;;;;;4.43;1.70;;;26.60;33.20;;;;;;5055957;28;20028;-70
2023/10/03 12:09:26;;;;;;;6.88;1.80;;;26.40;35.10;;;;;;5065757;28;20039;-71
2023/10/03 12:11:53;;;;;;;6.28;1.95;;;26.20;34.90;;;;;;5077746;28;20036;-69
2023/10/03 12:14:20;;;;;;;4.78;2.10;;;26.10;34.20;;;;;;5085386;28;20050;-70
2023/10/03 12:16:51;;;;;;;4.22;2.33;;;26.00;34.10;;;;;;5068188;28;20024;-69
2023/10/03 12:19:19;;;;;;;3.20;1.70;;;26.00;34.20;;;;;;5055967;28;20059;-69
2023/10/03 12:21:47;;;;;;;4.13;1.88;;;26.00;34.00;;;;;;5072960;28;20435;-69
2023/10/03 12:24:15;;;;;;;5.20;1.75;;;26.10;34.30;;;;;;5077241;28;20057;-70
2023/10/03 12:26:42;;;;;;;4.40;1.85;;;26.10;33.70;;;;;;5077592;28;20107;-70
2023/10/03 12:29:10;;;;;;;3.63;1.73;;;26.20;33.40;;;;;;5078114;28;20362;-70
2023/10/03 12:31:37;;;;;;;4.03;2.03;;;26.30;33.50;;;;;;5077772;28;20027;-70
2023/10/03 12:34:05;;;;;;;3.45;1.85;;;26.40;33.10;;;;;;5079574;28;20024;-70
2023/10/03 12:36:33;;;;;;;4.40;1.67;;;26.40;33.00;;;;;;5073729;28;20078;-70
2023/10/03 12:39:10;;;;;;;4.63;1.63;;;26.30;33.20;;;;;;5055982;28;20032;-70
2023/10/03 12:41:38;;;;;;;3.92;1.60;;;26.20;33.80;;;;;;5076411;28;20065;-70
2023/10/03 12:44:05;;;;;;;2.45;1.50;;;26.20;33.30;;;;;;5067737;28;20443;-69
2023/10/03 12:46:33;;;;;;;5.40;1.42;;;26.20;32.40;;;;;;5065709;28;20119;-70
2023/10/03 12:49:00;;;;;;;3.50;1.45;;;26.30;32.70;;;;;;5068305;28;20791;-70
2023/10/03 12:51:27;;;;;;;4.45;1.75;;;26.30;31.90;;;;;;5057023;28;20093;-69
2023/10/03 12:53:55;;;;;;;4.32;1.40;;;26.30;31.70;;;;;;5074444;28;20024;-69
2023/10/03 12:56:23;;;;;;;5.40;1.60;;;26.40;31.60;;;;;;5080398;28;20024;-69
2023/10/03 12:58:50;;;;;;;2.72;1.30;;;26.40;30.80;;;;;;5085279;28;20472;-70
2023/10/03 13:01:17;;;;;;;2.67;1.23;;;26.80;29.20;;;;;;5070272;28;20032;-69
2023/10/03 13:03:46;;;;;;;4.68;1.17;;;27.00;29.00;;;;;;5075197;28;20107;-70